Time;durP1;ratioP1;P1;durP2;ratioP2;P2;SDS_P1;SDS_P2;PMS_P1;PMS_P2;Temp;Humidity;BMP_temperature;BMP_pressure;BME280_temperature;BME280_humidity;BME280_pressure;Samples;Min_cycle;Max_cycle;Signal;HPM_P1;HPM_P2
2023/03/12 00:01:28;;;;;;;4.90;3.30;;;3.10;58.80;;;;;;5114764;28;20266;-70
2023/03/12 00:03:55;;;;;;;6.97;4.95;;;3.10;59.30;;;;;;5115376;28;20201;-70
2023/03/12 00:06:28;;;;;;;7.38;4.18;;;3.00;59.60;;;;;;5115039;28;20213;-71
2023/03/12 00:08:57;;;;;;;5.80;3.55;;;3.00;60.90;;;;;;5114953;28;20231;-70
2023/03/12 00:11:30;;;;;;;3.95;3.00;;;2.90;60.30;;;;;;5115117;28;20250;-71
2023/03/12 00:14:02;;;;;;;3.90;2.78;;;2.90;60.60;;;;;;5115038;28;20259;-70
2023/03/12 00:16:34;;;;;;;4.82;3.22;;;2.80;60.90;;;;;;5114958;28;20200;-71
2023/03/12 00:19:03;;;;;;;5.10;3.10;;;2.70;61.30;;;;;;5114868;28;20285;-71
2023/03/12 00:21:37;;;;;;;9.27;4.45;;;2.70;61.90;;;;;;5115109;28;20287;-70
2023/03/12 00:24:06;;;;;;;4.30;3.38;;;2.70;62.40;;;;;;5114969;28;20412;-71
2023/03/12 00:26:33;;;;;;;5.80;3.20;;;2.70;62.50;;;;;;5114323;28;20197;-71
2023/03/12 00:29:06;;;;;;;3.13;2.55;;;2.70;62.50;;;;;;5114557;28;20273;-72
2023/03/12 00:31:34;;;;;;;5.55;3.33;;;2.60;62.60;;;;;;5114789;28;20526;-71
2023/03/12 00:34:02;;;;;;;5.30;3.22;;;2.60;62.90;;;;;;5114768;28;20665;-70
2023/03/12 00:36:35;;;;;;;8.05;3.78;;;2.50;63.40;;;;;;5114252;28;20234;-70
2023/03/12 00:39:02;;;;;;;4.65;2.72;;;2.50;63.90;;;;;;5114749;28;20194;-71
2023/03/12 00:41:30;;;;;;;4.30;2.75;;;2.50;63.90;;;;;;5114757;28;20233;-70
2023/03/12 00:43:59;;;;;;;3.80;2.90;;;2.40;64.40;;;;;;5114018;28;20740;-70
2023/03/12 00:46:28;;;;;;;2.85;2.30;;;2.40;64.20;;;;;;5113997;28;20233;-70
2023/03/12 00:49:01;;;;;;;5.13;2.28;;;2.40;64.50;;;;;;5114535;28;20196;-70
2023/03/12 00:51:30;;;;;;;4.10;2.70;;;2.40;64.70;;;;;;5114088;28;20672;-70
2023/03/12 00:53:57;;;;;;;5.95;2.50;;;2.40;65.30;;;;;;5114334;28;20253;-70
2023/03/12 00:56:26;;;;;;;3.65;2.38;;;2.40;65.10;;;;;;5114297;28;20722;-74
2023/03/12 00:58:55;;;;;;;5.65;3.08;;;2.30;65.40;;;;;;5113884;28;20600;-70
2023/03/12 01:01:26;;;;;;;4.95;2.58;;;2.30;65.20;;;;;;5113742;28;20297;-70
2023/03/12 01:03:54;;;;;;;5.25;2.70;;;2.20;65.40;;;;;;5114278;28;20204;-70
2023/03/12 01:06:37;;;;;;;6.68;3.70;;;2.20;66.00;;;;;;5114448;28;20582;-70
2023/03/12 01:09:06;;;;;;;7.47;4.00;;;2.10;66.60;;;;;;5111376;28;20704;-70
2023/03/12 01:11:33;;;;;;;6.97;4.45;;;2.00;67.00;;;;;;5114224;28;20226;-70
2023/03/12 01:14:08;;;;;;;5.35;3.55;;;2.00;67.40;;;;;;5113901;28;20326;-70
2023/03/12 01:16:41;;;;;;;6.47;3.65;;;2.00;67.50;;;;;;5114311;28;20242;-71
2023/03/12 01:19:13;;;;;;;5.90;3.80;;;2.00;67.70;;;;;;5114009;28;20185;-71
2023/03/12 01:21:41;;;;;;;6.82;3.65;;;1.90;67.90;;;;;;5113759;28;20222;-70
2023/03/12 01:24:17;;;;;;;7.07;4.50;;;1.90;68.40;;;;;;5113665;28;20541;-70
2023/03/12 01:26:46;;;;;;;5.80;4.20;;;1.90;68.60;;;;;;5113647;28;20237;-70
2023/03/12 01:29:18;;;;;;;6.68;3.97;;;1.80;69.00;;;;;;5113801;28;20643;-70
2023/03/12 01:31:46;;;;;;;4.47;3.33;;;1.80;68.70;;;;;;5113482;28;20283;-70
2023/03/12 01:34:14;;;;;;;4.45;2.85;;;1.80;68.00;;;;;;5113545;28;20617;-70
2023/03/12 01:36:46;;;;;;;4.65;2.92;;;1.80;67.70;;;;;;5113757;28;20223;-70
2023/03/12 01:39:14;;;;;;;8.00;3.53;;;1.70;67.70;;;;;;5113631;28;20292;-70
2023/03/12 01:41:46;;;;;;;8.38;3.38;;;1.60;68.00;;;;;;5119588;27;20337;-70
2023/03/12 01:44:15;;;;;;;6.45;3.65;;;1.50;69.20;;;;;;5133646;27;20214;-70
2023/03/12 01:46:45;;;;;;;4.15;2.80;;;1.50;69.90;;;;;;5133921;27;20248;-71
2023/03/12 01:49:17;;;;;;;4.28;2.58;;;1.50;70.20;;;;;;5133747;27;20254;-71
2023/03/12 01:51:49;;;;;;;7.10;3.58;;;1.40;70.60;;;;;;5134093;27;20224;-74
2023/03/12 01:54:25;;;;;;;5.15;3.03;;;1.40;71.30;;;;;;5133549;27;20692;-70
2023/03/12 01:56:57;;;;;;;3.60;2.85;;;1.40;71.50;;;;;;5133962;27;20652;-70
2023/03/12 01:59:28;;;;;;;5.38;3.53;;;1.40;72.40;;;;;;5133865;27;20186;-70
2023/03/12 02:01:55;;;;;;;6.50;4.07;;;1.50;72.60;;;;;;5133888;28;20295;-70
2023/03/12 02:04:32;;;;;;;6.78;3.17;;;1.50;71.90;;;;;;5133464;28;20276;-70
2023/03/12 02:07:08;;;;;;;6.55;4.22;;;1.50;72.30;;;;;;5133515;28;20275;-70
2023/03/12 02:09:43;;;;;;;9.25;3.05;;;1.50;72.40;;;;;;5134226;28;20276;-70
2023/03/12 02:12:12;;;;;;;5.45;3.25;;;1.50;72.20;;;;;;5133972;28;20554;-70
2023/03/12 02:14:41;;;;;;;7.25;3.45;;;1.40;72.20;;;;;;5133416;28;20272;-70
2023/03/12 02:17:09;;;;;;;6.22;3.08;;;1.50;72.70;;;;;;5133604;28;20220;-70
2023/03/12 02:19:43;;;;;;;3.63;2.70;;;1.50;72.50;;;;;;5133908;28;20277;-70
2023/03/12 02:22:16;;;;;;;4.95;3.10;;;1.50;73.00;;;;;;5133292;28;20643;-70
2023/03/12 02:24:57;;;;;;;5.00;3.25;;;1.50;73.10;;;;;;5133631;28;20222;-70
2023/03/12 02:27:33;;;;;;;4.43;3.30;;;1.50;72.80;;;;;;5133602;28;20201;-70
2023/03/12 02:30:01;;;;;;;6.60;3.33;;;1.40;73.60;;;;;;5133756;28;20225;-70
2023/03/12 02:32:34;;;;;;;5.38;3.20;;;1.50;74.20;;;;;;5133709;28;20194;-70
2023/03/12 02:35:04;;;;;;;5.13;3.55;;;1.50;74.30;;;;;;5133478;28;20686;-71
2023/03/12 02:37:33;;;;;;;4.90;3.20;;;1.50;74.40;;;;;;5133500;28;20191;-70
2023/03/12 02:40:05;;;;;;;4.95;3.30;;;1.60;74.60;;;;;;5133910;28;20548;-70
2023/03/12 02:42:34;;;;;;;4.65;3.05;;;1.60;74.70;;;;;;5133521;28;20724;-70
2023/03/12 02:45:03;;;;;;;8.77;3.40;;;1.70;74.60;;;;;;5133373;28;20194;-70
2023/03/12 02:47:33;;;;;;;5.60;3.70;;;1.70;74.70;;;;;;5133318;28;20198;-70
2023/03/12 02:50:03;;;;;;;5.75;3.47;;;1.70;75.40;;;;;;5133135;28;20720;-70
2023/03/12 02:52:35;;;;;;;6.13;3.83;;;1.70;74.90;;;;;;5133761;28;20240;-70
2023/03/12 02:55:04;;;;;;;5.85;4.10;;;1.80;74.50;;;;;;5133289;28;20261;-71
2023/03/12 02:57:36;;;;;;;4.75;3.70;;;1.80;74.90;;;;;;5133354;28;20282;-73
2023/03/12 03:00:10;;;;;;;11.10;4.50;;;1.80;74.90;;;;;;5127636;28;20280;-71
2023/03/12 03:02:39;;;;;;;5.35;3.92;;;1.90;75.40;;;;;;5112847;28;20198;-70
2023/03/12 03:05:11;;;;;;;8.75;4.15;;;1.90;75.30;;;;;;5112509;28;20195;-70
2023/03/12 03:07:43;;;;;;;10.45;5.05;;;1.90;75.70;;;;;;5113127;28;20191;-71
2023/03/12 03:10:11;;;;;;;4.88;3.83;;;2.00;75.40;;;;;;5116173;28;20286;-70
2023/03/12 03:12:40;;;;;;;8.80;4.53;;;2.00;75.20;;;;;;5116444;28;20368;-70
2023/03/12 03:15:08;;;;;;;9.32;5.03;;;2.10;75.20;;;;;;5116462;28;20223;-70
2023/03/12 03:17:35;;;;;;;7.38;4.72;;;2.10;74.90;;;;;;5115906;28;20621;-70
2023/03/12 03:20:05;;;;;;;8.13;5.10;;;2.20;74.90;;;;;;5115855;28;20661;-71
2023/03/12 03:22:38;;;;;;;7.15;4.90;;;2.20;74.80;;;;;;5116067;28;20229;-71
2023/03/12 03:25:10;;;;;;;6.82;3.92;;;2.30;74.70;;;;;;5115848;28;20271;-70
2023/03/12 03:27:41;;;;;;;7.15;4.40;;;2.30;74.40;;;;;;5115581;28;20641;-70
2023/03/12 03:30:10;;;;;;;5.13;4.60;;;2.30;74.20;;;;;;5115602;28;20720;-70
2023/03/12 03:32:38;;;;;;;5.50;4.47;;;2.40;74.40;;;;;;5115450;28;20256;-71
2023/03/12 03:35:09;;;;;;;7.93;4.68;;;2.40;74.40;;;;;;5115425;28;20314;-71
2023/03/12 03:37:46;;;;;;;6.25;4.60;;;2.40;74.40;;;;;;5115752;28;20271;-70
2023/03/12 03:40:18;;;;;;;7.85;4.43;;;2.50;74.70;;;;;;5115601;28;20248;-70
2023/03/12 03:42:48;;;;;;;8.43;4.95;;;2.50;74.60;;;;;;5115864;28;20279;-70
2023/03/12 03:45:18;;;;;;;8.18;4.10;;;2.50;74.30;;;;;;5115293;28;20282;-70
2023/03/12 03:47:47;;;;;;;7.45;4.95;;;2.60;74.00;;;;;;5115880;28;20646;-71
2023/03/12 03:50:16;;;;;;;12.00;5.50;;;2.60;73.70;;;;;;5115239;28;20230;-70
2023/03/12 03:52:45;;;;;;;9.10;5.35;;;2.60;73.90;;;;;;5115580;28;20697;-71
2023/03/12 03:55:17;;;;;;;12.00;4.80;;;2.60;74.10;;;;;;5114970;28;20686;-71
2023/03/12 03:57:50;;;;;;;9.93;5.97;;;2.60;73.70;;;;;;5115484;28;20195;-70
2023/03/12 04:00:18;;;;;;;18.15;6.82;;;2.60;73.90;;;;;;5115150;28;20268;-71
2023/03/12 04:02:47;;;;;;;11.63;5.70;;;2.70;73.70;;;;;;5115448;28;20230;-70
2023/03/12 04:05:18;;;;;;;13.38;6.32;;;2.70;73.90;;;;;;5115398;28;20274;-70
2023/03/12 04:07:45;;;;;;;8.82;5.13;;;2.70;74.30;;;;;;5115184;28;20188;-70
2023/03/12 04:10:14;;;;;;;7.13;4.78;;;2.70;74.50;;;;;;5115089;28;20550;-71
2023/03/12 04:12:46;;;;;;;8.52;4.20;;;2.70;75.00;;;;;;5115231;28;20234;-70
2023/03/12 04:15:18;;;;;;;5.32;3.40;;;2.80;75.30;;;;;;5114779;28;20216;-70
2023/03/12 04:17:48;;;;;;;6.68;4.15;;;2.80;76.00;;;;;;5115168;28;20188;-70
2023/03/12 04:20:20;;;;;;;6.38;3.58;;;2.80;76.40;;;;;;5114995;28;20199;-70
2023/03/12 04:22:47;;;;;;;6.03;4.10;;;2.80;77.00;;;;;;5115105;28;20301;-70
2023/03/12 04:25:14;;;;;;;20.02;5.05;;;2.80;77.10;;;;;;5114970;28;20230;-71
2023/03/12 04:27:41;;;;;;;8.50;4.20;;;2.90;77.50;;;;;;5114695;28;20600;-70
2023/03/12 04:30:10;;;;;;;7.55;4.50;;;2.90;78.00;;;;;;5114573;28;20196;-70
2023/03/12 04:32:38;;;;;;;6.30;5.20;;;2.90;78.60;;;;;;5114705;28;20208;-71
2023/03/12 04:35:06;;;;;;;6.03;4.50;;;2.90;79.10;;;;;;5114752;28;20614;-70
2023/03/12 04:37:36;;;;;;;5.85;4.53;;;2.90;79.50;;;;;;5114464;28;20195;-71
2023/03/12 04:40:06;;;;;;;7.70;5.28;;;2.90;79.80;;;;;;5114896;28;20227;-70
2023/03/12 04:42:34;;;;;;;8.48;5.13;;;2.90;80.00;;;;;;5114498;28;20195;-71
2023/03/12 04:45:06;;;;;;;5.80;4.05;;;2.90;80.50;;;;;;5114916;28;20238;-70
2023/03/12 04:47:34;;;;;;;3.92;3.40;;;2.90;81.20;;;;;;5114765;28;20227;-71
2023/03/12 04:50:03;;;;;;;6.00;3.90;;;2.90;81.70;;;;;;5114845;28;20190;-70
2023/03/12 04:52:32;;;;;;;5.80;4.38;;;3.00;82.00;;;;;;5114421;28;20332;-70
2023/03/12 04:54:59;;;;;;;7.18;4.50;;;2.90;82.90;;;;;;5114516;28;20227;-70
2023/03/12 04:57:26;;;;;;;7.38;4.65;;;3.00;83.50;;;;;;5114327;28;20237;-70
2023/03/12 04:59:55;;;;;;;7.53;4.68;;;3.00;84.30;;;;;;5114553;28;20216;-70
2023/03/12 05:02:24;;;;;;;6.78;5.32;;;3.00;85.00;;;;;;5114507;28;20255;-70
2023/03/12 05:04:55;;;;;;;6.13;4.22;;;3.00;85.80;;;;;;5114333;28;20228;-70
2023/03/12 05:07:23;;;;;;;5.25;3.70;;;2.90;86.50;;;;;;5114131;28;20199;-70
2023/03/12 05:10:16;;;;;;;6.45;4.70;;;3.00;87.10;;;;;;5113968;28;20275;-70
2023/03/12 05:12:43;;;;;;;5.63;3.72;;;3.00;87.30;;;;;;5114069;28;20283;-70
2023/03/12 05:15:11;;;;;;;7.95;4.15;;;3.10;87.90;;;;;;5113576;28;20261;-71
2023/03/12 05:17:40;;;;;;;6.65;4.50;;;3.00;88.80;;;;;;5114315;28;20616;-70
2023/03/12 05:20:09;;;;;;;8.38;5.55;;;3.10;89.40;;;;;;5113941;28;20253;-70
2023/03/12 05:22:38;;;;;;;7.68;5.13;;;3.10;89.40;;;;;;5113896;28;20617;-71
2023/03/12 05:25:06;;;;;;;8.93;5.00;;;3.10;89.80;;;;;;5113600;28;20239;-72
2023/03/12 05:27:35;;;;;;;6.35;4.40;;;3.10;90.20;;;;;;5113632;28;20233;-72
2023/03/12 05:30:04;;;;;;;5.45;4.13;;;3.20;90.20;;;;;;5113579;28;20283;-72
2023/03/12 05:32:35;;;;;;;6.45;4.43;;;3.20;90.40;;;;;;5113436;28;20271;-70
2023/03/12 05:35:03;;;;;;;8.40;5.97;;;3.20;90.40;;;;;;5113709;28;20219;-71
2023/03/12 05:37:30;;;;;;;8.07;5.72;;;3.30;90.70;;;;;;5113535;28;20532;-70
2023/03/12 05:39:59;;;;;;;7.25;4.95;;;3.30;91.20;;;;;;5113531;28;20207;-70
2023/03/12 05:42:31;;;;;;;6.68;5.00;;;3.30;91.20;;;;;;5113349;28;20603;-70
2023/03/12 05:44:59;;;;;;;7.57;4.78;;;3.30;91.30;;;;;;5113841;28;20199;-70
2023/03/12 05:47:31;;;;;;;6.47;4.35;;;3.30;91.50;;;;;;5113396;28;20291;-70
2023/03/12 05:50:00;;;;;;;8.25;5.35;;;3.30;91.60;;;;;;5113415;28;20270;-71
2023/03/12 05:52:35;;;;;;;12.77;6.80;;;3.40;91.60;;;;;;5113624;28;20245;-70
2023/03/12 05:55:05;;;;;;;15.68;6.53;;;3.40;91.60;;;;;;5113685;28;20330;-71
2023/03/12 05:57:32;;;;;;;10.38;5.85;;;3.50;91.70;;;;;;5113318;28;20228;-70
2023/03/12 06:00:04;;;;;;;6.78;5.10;;;3.50;91.70;;;;;;5113319;28;20270;-70
2023/03/12 06:02:40;;;;;;;7.28;5.55;;;3.50;91.80;;;;;;5113736;28;20194;-70
2023/03/12 06:05:10;;;;;;;8.50;5.18;;;3.60;91.60;;;;;;5113164;28;20280;-70
2023/03/12 06:07:45;;;;;;;6.88;5.40;;;3.60;91.60;;;;;;5113400;28;20247;-70
2023/03/12 06:10:14;;;;;;;9.65;6.28;;;3.70;91.50;;;;;;5113101;28;20604;-70
2023/03/12 06:12:46;;;;;;;8.95;7.03;;;3.70;91.50;;;;;;5112994;28;20227;-70
2023/03/12 06:15:15;;;;;;;8.75;7.53;;;3.70;91.50;;;;;;5113172;28;20254;-70
2023/03/12 06:17:46;;;;;;;9.52;7.32;;;3.70;91.50;;;;;;5113185;28;20196;-71
2023/03/12 06:20:13;;;;;;;8.68;6.18;;;3.80;91.50;;;;;;5113271;28;20188;-70
2023/03/12 06:22:42;;;;;;;12.85;6.82;;;3.90;91.40;;;;;;5112839;28;20196;-70
2023/03/12 06:25:14;;;;;;;9.00;6.25;;;3.90;91.30;;;;;;5113317;28;20200;-72
2023/03/12 06:27:44;;;;;;;10.15;6.75;;;3.90;91.20;;;;;;5113318;28;20271;-70
2023/03/12 06:30:16;;;;;;;13.68;9.73;;;3.90;91.10;;;;;;5112937;28;20651;-70
2023/03/12 06:32:43;;;;;;;14.75;8.38;;;4.00;91.20;;;;;;5113090;28;20300;-70
2023/03/12 06:35:11;;;;;;;10.15;7.22;;;4.00;91.10;;;;;;5112968;28;20563;-70
2023/03/12 06:37:38;;;;;;;13.35;8.10;;;4.10;91.00;;;;;;5113051;28;20788;-70
2023/03/12 06:40:09;;;;;;;15.38;7.68;;;4.10;91.00;;;;;;5112804;28;20196;-70
2023/03/12 06:42:38;;;;;;;15.55;7.68;;;4.20;90.90;;;;;;5113557;28;20192;-70
2023/03/12 06:45:11;;;;;;;12.40;7.60;;;4.20;90.90;;;;;;5117091;28;20227;-71
2023/03/12 06:47:43;;;;;;;11.73;8.05;;;4.30;90.60;;;;;;5116978;28;20228;-71
2023/03/12 06:50:19;;;;;;;14.25;9.13;;;4.30;90.50;;;;;;5116908;28;20599;-70
2023/03/12 06:52:54;;;;;;;15.50;9.02;;;4.30;90.30;;;;;;5116893;28;20231;-70
2023/03/12 06:55:21;;;;;;;15.75;9.82;;;4.40;90.20;;;;;;5116878;28;20254;-70
2023/03/12 06:57:53;;;;;;;18.02;11.57;;;4.40;90.20;;;;;;5116395;28;20228;-70
2023/03/12 07:00:22;;;;;;;19.17;11.93;;;4.40;90.20;;;;;;5116321;28;20289;-70
2023/03/12 07:02:56;;;;;;;14.55;9.48;;;4.40;90.10;;;;;;5116501;28;20188;-70
2023/03/12 07:05:23;;;;;;;11.73;6.88;;;4.40;90.00;;;;;;5116285;28;20228;-70
2023/03/12 07:07:51;;;;;;;24.20;15.50;;;4.40;90.00;;;;;;5116479;28;20272;-70
2023/03/12 07:10:19;;;;;;;17.95;12.38;;;4.40;89.70;;;;;;5116704;28;20400;-70
2023/03/12 07:12:48;;;;;;;17.60;10.82;;;4.40;89.30;;;;;;5116006;28;20643;-70
2023/03/12 07:15:20;;;;;;;14.68;10.00;;;4.50;89.60;;;;;;5116092;28;20295;-70
2023/03/12 07:17:55;;;;;;;11.75;7.55;;;4.40;89.40;;;;;;5116131;28;20224;-70
2023/03/12 07:20:27;;;;;;;10.85;7.82;;;4.50;89.70;;;;;;5101076;28;20192;-70
2023/03/12 07:22:55;;;;;;;9.77;8.75;;;4.50;89.80;;;;;;5098628;28;20276;-77
2023/03/12 07:25:36;;;;;;;16.23;9.57;;;4.60;89.70;;;;;;5095848;28;20199;-70
2023/03/12 07:28:07;;;;;;;10.35;8.50;;;4.70;89.70;;;;;;5095151;28;20585;-71
2023/03/12 07:30:36;;;;;;;12.35;8.38;;;4.70;88.80;;;;;;5094952;28;20201;-70
2023/03/12 07:35:57;;;;;;;10.70;7.95;;;4.60;89.10;;;;;;5092412;28;20220;-70
2023/03/12 07:38:30;;;;;;;10.57;8.00;;;4.70;88.90;;;;;;5097804;28;20210;-70
2023/03/12 07:41:00;;;;;;;14.00;7.60;;;4.70;88.80;;;;;;5094389;28;20181;-70
2023/03/12 07:43:28;;;;;;;8.15;6.35;;;4.60;90.00;;;;;;5094396;28;20614;-70
2023/03/12 07:45:57;;;;;;;9.15;7.95;;;4.60;89.30;;;;;;5094245;28;20219;-71
2023/03/12 07:48:24;;;;;;;12.25;8.43;;;4.60;90.10;;;;;;5094302;28;20196;-70
2023/03/12 07:50:53;;;;;;;7.60;5.72;;;4.70;90.20;;;;;;5094327;28;20201;-70
2023/03/12 07:53:21;;;;;;;6.75;6.05;;;4.70;90.10;;;;;;5093803;28;20527;-71
2023/03/12 07:55:48;;;;;;;8.40;6.00;;;4.70;90.20;;;;;;5093614;28;20217;-70
2023/03/12 07:58:16;;;;;;;7.47;4.78;;;4.80;90.20;;;;;;5093688;28;20189;-70
2023/03/12 08:00:43;;;;;;;7.53;5.35;;;4.90;89.50;;;;;;5104461;27;20220;-71
2023/03/12 08:03:12;;;;;;;24.27;11.93;;;4.90;90.00;;;;;;5113982;27;20655;-73
2023/03/12 08:05:40;;;;;;;10.80;6.20;;;4.90;90.10;;;;;;5114037;27;20553;-71
2023/03/12 08:08:07;;;;;;;10.23;6.65;;;5.00;89.20;;;;;;5114233;27;20200;-71
2023/03/12 08:10:36;;;;;;;67.10;34.67;;;4.90;90.30;;;;;;5114317;27;20578;-71
2023/03/12 08:13:03;;;;;;;17.10;10.10;;;5.00;90.20;;;;;;5113856;27;20188;-71
2023/03/12 08:15:30;;;;;;;9.13;6.80;;;5.00;90.30;;;;;;5115521;27;20273;-70
2023/03/12 08:17:58;;;;;;;9.13;5.80;;;5.00;90.20;;;;;;5114141;27;20249;-70
2023/03/12 08:20:26;;;;;;;9.07;6.97;;;5.10;89.60;;;;;;5113621;27;20188;-70
2023/03/12 08:22:53;;;;;;;8.05;6.25;;;5.10;89.90;;;;;;5114197;27;20289;-70
2023/03/12 08:25:23;;;;;;;6.80;4.50;;;5.20;90.00;;;;;;5114268;27;20224;-70
2023/03/12 08:27:50;;;;;;;6.55;4.72;;;5.20;90.00;;;;;;5114230;27;20633;-71
2023/03/12 08:30:17;;;;;;;5.00;3.70;;;5.20;88.90;;;;;;5114106;27;20599;-70
2023/03/12 08:32:44;;;;;;;4.80;3.33;;;5.20;89.70;;;;;;5131660;27;20286;-70
2023/03/12 08:35:13;;;;;;;5.18;3.63;;;5.30;90.00;;;;;;5132367;27;20192;-70
2023/03/12 08:37:42;;;;;;;4.28;3.55;;;5.30;89.80;;;;;;5132362;27;20227;-70
2023/03/12 08:40:11;;;;;;;4.88;3.20;;;5.30;89.50;;;;;;5132036;27;20274;-71
2023/03/12 08:42:39;;;;;;;4.82;3.25;;;5.30;89.50;;;;;;5113825;27;20215;-70
2023/03/12 08:45:07;;;;;;;5.50;3.65;;;5.40;88.90;;;;;;5113531;27;20291;-82
2023/03/12 08:47:34;;;;;;;6.35;4.22;;;5.40;89.40;;;;;;5114391;27;20647;-70
2023/03/12 08:50:02;;;;;;;5.22;3.78;;;5.50;89.20;;;;;;5113129;27;20535;-70
2023/03/12 08:52:29;;;;;;;6.97;5.35;;;5.60;89.10;;;;;;5114141;27;20192;-70
2023/03/12 08:54:57;;;;;;;6.72;5.05;;;5.70;88.10;;;;;;5113918;27;20220;-70
2023/03/12 08:57:24;;;;;;;8.38;6.07;;;5.80;88.60;;;;;;5113991;27;20311;-70
2023/03/12 08:59:51;;;;;;;15.43;9.00;;;5.90;88.40;;;;;;5119292;27;20307;-72
2023/03/12 09:02:27;;;;;;;15.43;6.18;;;6.00;88.90;;;;;;5095061;28;20747;-70
2023/03/12 09:04:54;;;;;;;7.63;5.43;;;6.00;87.20;;;;;;5092448;28;20228;-71
2023/03/12 09:07:22;;;;;;;6.88;4.97;;;6.20;87.40;;;;;;5108407;28;20622;-71
2023/03/12 09:09:48;;;;;;;5.28;3.63;;;6.50;85.60;;;;;;5108568;28;20189;-70
2023/03/12 09:12:17;;;;;;;5.70;3.88;;;6.60;84.20;;;;;;5094902;28;20724;-70
2023/03/12 09:14:44;;;;;;;8.50;4.35;;;6.60;83.30;;;;;;5097083;28;20220;-71
2023/03/12 09:17:11;;;;;;;5.43;3.83;;;6.60;82.90;;;;;;5101010;28;20307;-71
2023/03/12 09:19:39;;;;;;;6.80;4.20;;;6.60;83.50;;;;;;5092340;28;20284;-70
2023/03/12 09:22:06;;;;;;;6.32;4.70;;;6.80;82.60;;;;;;5094798;28;20283;-71
2023/03/12 09:24:33;;;;;;;4.88;3.85;;;6.90;83.20;;;;;;5105194;28;20269;-71
2023/03/12 09:27:01;;;;;;;9.82;4.22;;;7.00;83.30;;;;;;5092628;28;20192;-71
2023/03/12 09:29:29;;;;;;;6.55;4.47;;;7.10;82.60;;;;;;5092668;28;20284;-73
2023/03/12 09:31:57;;;;;;;5.30;4.45;;;7.20;82.50;;;;;;5094804;28;20189;-71
2023/03/12 09:34:24;;;;;;;6.85;5.45;;;7.20;81.90;;;;;;5096852;28;20713;-73
2023/03/12 09:36:51;;;;;;;5.20;4.03;;;7.30;81.50;;;;;;5092031;28;20749;-70
2023/03/12 09:39:22;;;;;;;6.78;4.78;;;7.40;79.10;;;;;;5091876;28;20454;-73
2023/03/12 09:41:50;;;;;;;7.28;4.55;;;7.40;78.80;;;;;;5091930;28;20226;-71
2023/03/12 09:44:26;;;;;;;5.78;4.20;;;7.30;80.20;;;;;;5091652;28;20651;-70
2023/03/12 09:47:01;;;;;;;5.25;4.07;;;7.30;79.90;;;;;;5096328;28;20192;-70
2023/03/12 09:49:39;;;;;;;9.43;5.00;;;7.30;79.90;;;;;;5090818;28;20224;-71
2023/03/12 09:52:16;;;;;;;9.10;4.50;;;7.30;80.60;;;;;;5089126;28;20188;-72
2023/03/12 09:54:48;;;;;;;6.43;4.80;;;7.50;80.50;;;;;;5108337;28;20657;-70
2023/03/12 09:57:21;;;;;;;5.63;4.40;;;7.60;80.40;;;;;;5091129;28;20695;-71
2023/03/12 09:59:49;;;;;;;6.00;4.68;;;7.90;79.30;;;;;;5093127;28;20686;-73
2023/03/12 10:02:41;;;;;;;6.40;4.03;;;8.10;79.30;;;;;;5110433;28;20188;-71
2023/03/12 10:05:16;;;;;;;6.18;4.57;;;8.60;78.90;;;;;;5110213;28;20188;-71
2023/03/12 10:07:48;;;;;;;5.22;4.30;;;9.10;76.50;;;;;;5110832;28;20188;-71
2023/03/12 10:10:37;;;;;;;7.63;4.47;;;9.20;73.50;;;;;;5125151;28;20232;-71
2023/03/12 10:13:24;;;;;;;8.48;5.53;;;9.10;72.60;;;;;;5111363;28;20180;-71
2023/03/12 10:16:03;;;;;;;7.10;4.93;;;9.00;73.20;;;;;;5111523;28;20181;-70
2023/03/12 10:18:57;;;;;;;7.53;4.55;;;8.90;74.30;;;;;;5129497;27;20917;-71
2023/03/12 10:21:30;;;;;;;6.80;4.35;;;9.10;75.00;;;;;;5114429;27;20188;-71
2023/03/12 10:24:11;;;;;;;6.97;5.30;;;9.20;74.50;;;;;;5114849;27;20223;-72
2023/03/12 10:26:44;;;;;;;5.07;4.03;;;9.40;75.00;;;;;;5130067;27;20187;-73
2023/03/12 10:29:19;;;;;;;6.90;4.13;;;10.40;73.00;;;;;;5119419;27;20184;-72
2023/03/12 10:31:53;;;;;;;4.90;3.70;;;10.80;68.30;;;;;;5115290;27;20660;-70
2023/03/12 10:34:29;;;;;;;4.97;4.05;;;10.60;67.90;;;;;;5111570;27;20771;-71
2023/03/12 10:37:00;;;;;;;5.00;3.72;;;10.20;68.70;;;;;;5106732;27;20681;-71
2023/03/12 10:39:29;;;;;;;8.27;5.45;;;9.80;71.30;;;;;;5122444;27;20206;-75
2023/03/12 10:41:57;;;;;;;6.57;4.78;;;9.60;74.30;;;;;;5128675;27;20223;-73
2023/03/12 10:44:25;;;;;;;4.57;4.10;;;9.50;75.20;;;;;;5110926;27;20204;-81
2023/03/12 10:47:06;;;;;;;7.03;4.80;;;9.40;76.10;;;;;;5110746;27;20231;-73
2023/03/12 10:49:37;;;;;;;6.07;4.60;;;9.40;77.30;;;;;;5125145;27;20188;-70
2023/03/12 10:52:16;;;;;;;5.65;4.38;;;9.50;78.80;;;;;;5132634;27;20252;-75
2023/03/12 10:54:48;;;;;;;6.30;4.20;;;9.70;80.10;;;;;;5121957;27;20199;-73
2023/03/12 10:57:21;;;;;;;7.65;5.82;;;9.80;80.40;;;;;;5132373;27;20603;-73
2023/03/12 10:59:50;;;;;;;5.80;4.45;;;10.20;81.60;;;;;;5128255;27;20258;-74
2023/03/12 11:02:31;;;;;;;7.20;4.93;;;12.40;77.30;;;;;;5091104;28;20250;-70
2023/03/12 11:05:02;;;;;;;5.38;4.07;;;14.30;65.00;;;;;;5097882;28;20185;-71
2023/03/12 11:07:35;;;;;;;3.90;3.00;;;15.90;59.30;;;;;;5092335;28;20192;-71
2023/03/12 11:10:17;;;;;;;4.27;3.13;;;16.70;54.90;;;;;;5093736;28;20922;-70
2023/03/12 11:13:00;;;;;;;4.03;3.17;;;16.10;53.00;;;;;;5094307;28;20467;-70
2023/03/12 11:15:30;;;;;;;3.27;2.33;;;15.10;54.10;;;;;;5095468;28;20446;-70
2023/03/12 11:18:34;;;;;;;6.10;3.20;;;14.20;56.20;;;;;;5093726;28;20485;-70
2023/03/12 11:21:18;;;;;;;4.88;3.47;;;13.60;59.30;;;;;;4991932;28;20196;-70
2023/03/12 11:24:03;;;;;;;4.10;3.00;;;13.70;62.90;;;;;;5086006;28;20656;-70
2023/03/12 11:26:34;;;;;;;3.60;3.10;;;14.40;61.10;;;;;;5109329;28;20193;-71
2023/03/12 11:29:05;;;;;;;3.10;1.73;;;14.50;60.30;;;;;;5093345;28;20528;-70
2023/03/12 11:31:38;;;;;;;1.90;0.70;;;14.40;60.70;;;;;;5096740;28;20189;-70
2023/03/12 11:34:21;;;;;;;2.20;1.00;;;14.30;61.00;;;;;;5098839;28;20192;-70
2023/03/12 11:36:58;;;;;;;2.75;1.10;;;14.10;61.50;;;;;;5097384;28;20212;-71
2023/03/12 11:39:38;;;;;;;1.90;0.90;;;14.10;61.20;;;;;;5097161;28;20193;-74
2023/03/12 11:42:19;;;;;;;6.40;1.27;;;14.10;61.10;;;;;;5093449;28;20242;-70
2023/03/12 11:45:00;;;;;;;2.40;0.90;;;14.10;62.10;;;;;;5096735;28;20184;-70
2023/03/12 11:47:49;;;;;;;2.05;0.90;;;14.30;63.20;;;;;;5095930;28;20180;-70
2023/03/12 11:50:26;;;;;;;2.77;1.00;;;14.50;62.90;;;;;;5094367;28;20578;-70
2023/03/12 11:53:20;;;;;;;2.63;1.20;;;14.70;59.60;;;;;;5094371;28;20454;-72
2023/03/12 11:56:06;;;;;;;2.13;1.10;;;14.80;59.40;;;;;;5094213;28;20514;-70
2023/03/12 11:59:08;;;;;;;1.80;0.98;;;14.70;58.50;;;;;;5110698;28;21002;-71
2023/03/12 12:01:49;;;;;;;2.67;1.10;;;14.60;59.30;;;;;;5062956;28;20312;-70
2023/03/12 12:04:43;;;;;;;2.00;1.17;;;14.60;58.80;;;;;;5094220;28;20255;-70
2023/03/12 12:07:19;;;;;;;3.10;1.27;;;14.50;58.10;;;;;;5109682;28;20515;-70
2023/03/12 12:09:56;;;;;;;3.47;0.95;;;14.30;58.70;;;;;;5094176;28;20516;-70
2023/03/12 12:12:43;;;;;;;1.73;0.80;;;14.10;58.40;;;;;;5094332;28;20218;-70
2023/03/12 12:15:20;;;;;;;2.15;1.25;;;13.90;59.60;;;;;;5096968;28;20653;-70
2023/03/12 12:17:57;;;;;;;3.15;1.42;;;13.70;60.10;;;;;;5093491;28;20617;-70
2023/03/12 12:20:37;;;;;;;1.90;1.00;;;13.60;60.10;;;;;;5093973;28;20673;-70
2023/03/12 12:23:17;;;;;;;2.38;1.08;;;13.60;60.20;;;;;;5093983;28;20281;-70
2023/03/12 12:26:07;;;;;;;3.38;1.60;;;13.40;59.40;;;;;;5093696;28;20276;-70
2023/03/12 12:28:58;;;;;;;2.10;1.23;;;13.20;59.40;;;;;;5110011;28;20283;-72
2023/03/12 12:31:32;;;;;;;5.63;1.50;;;13.00;61.80;;;;;;5093757;28;20572;-70
2023/03/12 12:34:25;;;;;;;3.30;1.20;;;13.00;62.30;;;;;;5095780;28;20690;-71
2023/03/12 12:36:57;;;;;;;8.82;4.85;;;13.10;60.90;;;;;;5097511;28;20247;-72
2023/03/12 12:39:35;;;;;;;5.05;2.13;;;13.20;61.60;;;;;;5092867;28;20204;-70
2023/03/12 12:42:08;;;;;;;2.25;1.00;;;13.60;60.30;;;;;;5090626;28;20295;-71
2023/03/12 12:44:41;;;;;;;2.50;0.98;;;13.90;59.90;;;;;;5093266;28;20283;-71
2023/03/12 12:47:16;;;;;;;3.97;1.10;;;14.10;58.50;;;;;;5093036;28;20679;-71
2023/03/12 12:49:46;;;;;;;3.40;1.30;;;14.20;58.30;;;;;;5092949;28;20193;-71
2023/03/12 12:52:17;;;;;;;2.95;1.50;;;14.10;58.00;;;;;;5093252;28;20196;-70
2023/03/12 12:54:55;;;;;;;2.63;1.23;;;14.00;59.40;;;;;;5093234;28;20189;-71
2023/03/12 12:57:28;;;;;;;2.80;1.13;;;14.10;58.90;;;;;;5093072;28;20685;-70
2023/03/12 13:00:09;;;;;;;3.00;1.30;;;14.50;58.40;;;;;;5097092;28;20687;-74
2023/03/12 13:02:43;;;;;;;2.53;1.00;;;15.40;56.20;;;;;;5113435;27;20237;-71
2023/03/12 13:05:20;;;;;;;2.10;0.90;;;16.20;54.90;;;;;;5113142;27;20438;-72
2023/03/12 13:07:48;;;;;;;2.63;0.87;;;16.90;52.70;;;;;;5113190;27;20445;-71
2023/03/12 13:10:43;;;;;;;2.10;1.00;;;17.20;51.90;;;;;;5113301;27;20920;-71
2023/03/12 13:13:17;;;;;;;1.90;1.10;;;17.50;51.70;;;;;;5112912;27;20521;-74
2023/03/12 13:15:50;;;;;;;4.23;1.10;;;17.80;51.50;;;;;;5113450;27;20461;-72
2023/03/12 13:18:25;;;;;;;2.00;0.87;;;18.50;47.90;;;;;;5113066;27;20517;-73
2023/03/12 13:21:16;;;;;;;2.00;1.00;;;18.30;46.80;;;;;;5111630;27;20524;-72